createdAt,value
2018-09-18T00:00:02.559Z,97959.88
2018-09-18T00:02:31.939Z,97959.77
2018-09-18T00:05:03.553Z,97957.70
2018-09-18T00:07:39.439Z,97961.47
2018-09-18T00:10:09.779Z,97958.84
2018-09-18T00:12:41.800Z,97952.80
2018-09-18T00:15:13.579Z,97953.02
2018-09-18T00:17:45.379Z,97950.07
2018-09-18T00:47:53.499Z,97938.20
2018-09-18T00:50:23.979Z,97938.22
2018-09-18T00:52:54.619Z,97938.98
2018-09-18T00:55:24.439Z,97934.05
2018-09-18T00:57:54.958Z,97937.19
2018-09-18T01:00:25.921Z,97943.58
2018-09-18T01:02:55.918Z,97936.34
2018-09-18T01:05:25.798Z,97942.94
2018-09-18T01:08:00.042Z,97936.88
2018-09-18T01:22:36.378Z,97937.70
2018-09-18T01:25:06.798Z,97933.36
2018-09-18T01:27:36.638Z,97924.56
2018-09-18T01:30:07.258Z,97921.96
2018-09-18T01:32:37.040Z,97925.78
2018-09-18T01:35:06.827Z,97926.23
2018-09-18T01:37:36.299Z,97926.20
2018-09-18T01:40:06.699Z,97918.20
2018-09-18T01:42:36.218Z,97913.69
2018-09-18T01:45:05.978Z,97919.44
2018-09-18T01:47:35.978Z,97920.71
2018-09-18T01:50:07.278Z,97910.75
2018-09-18T01:52:39.458Z,97910.77
2018-09-18T01:55:10.058Z,97912.67
2018-09-18T02:00:43.186Z,97908.29
2018-09-18T02:03:14.178Z,97915.22
2018-09-18T02:05:43.718Z,97915.89
2018-09-18T02:08:14.427Z,97913.16
2018-09-18T02:10:43.878Z,97913.07
2018-09-18T02:13:13.479Z,97917.18
2018-09-18T02:15:43.261Z,97920.09
2018-09-18T02:18:13.166Z,97920.09
2018-09-18T02:20:43.718Z,97919.47
2018-09-18T02:23:13.159Z,97921.88
2018-09-18T02:25:42.918Z,97921.32
2018-09-18T02:28:12.359Z,97910.98
2018-09-18T02:30:41.806Z,97921.30
2018-09-18T02:33:11.399Z,97918.55
2018-09-18T02:35:41.004Z,97923.75
2018-09-18T02:38:10.447Z,97923.44
2018-09-18T02:40:40.200Z,97925.38
2018-09-18T02:43:09.638Z,97927.72
2018-09-18T02:45:39.318Z,97924.94
2018-09-18T02:48:08.837Z,97925.00
2018-09-18T02:50:38.439Z,97916.41
2018-09-18T02:53:07.878Z,97920.91
2018-09-18T02:55:37.478Z,97914.88
2018-09-18T02:58:06.946Z,97916.42
2018-09-18T03:00:36.658Z,97916.56
2018-09-18T03:03:06.080Z,97918.00
2018-09-18T03:05:35.639Z,97918.48
2018-09-18T03:08:05.403Z,97920.40
2018-09-18T03:10:35.138Z,97920.14
2018-09-18T03:13:04.559Z,97918.31
2018-09-18T03:15:34.018Z,97915.87
2018-09-18T03:18:03.599Z,97919.05
2018-09-18T03:20:33.218Z,97916.47
2018-09-18T03:23:02.766Z,97917.02
2018-09-18T03:25:32.638Z,97922.41
2018-09-18T03:28:04.103Z,97926.55
2018-09-18T03:30:34.138Z,97928.86
2018-09-18T03:33:04.176Z,97924.19
2018-09-18T03:35:33.817Z,97927.09
2018-09-18T03:38:03.240Z,97928.88
2018-09-18T03:40:32.863Z,97926.34
2018-09-18T03:43:02.444Z,97924.27
2018-09-18T03:45:32.259Z,97921.74
2018-09-18T03:48:01.790Z,97928.37
2018-09-18T03:50:31.545Z,97930.00
2018-09-18T03:53:00.977Z,97926.91
2018-09-18T03:55:30.746Z,97921.79
2018-09-18T03:58:00.355Z,97918.55
2018-09-18T04:00:30.032Z,97925.81
2018-09-18T04:02:59.422Z,97927.95
2018-09-18T04:05:28.824Z,97926.64
2018-09-18T04:07:58.395Z,97924.31
2018-09-18T04:10:28.037Z,97926.19
2018-09-18T04:12:57.637Z,97927.30
2018-09-18T04:15:27.379Z,97928.78
2018-09-18T04:17:57.716Z,97927.95
2018-09-18T04:20:27.388Z,97936.19
2018-09-18T04:22:56.921Z,97930.77
2018-09-18T04:25:26.665Z,97933.59
2018-09-18T04:27:56.356Z,97938.91
2018-09-18T04:30:25.840Z,97942.66
2018-09-18T04:32:55.224Z,97942.84
2018-09-18T04:35:24.753Z,97953.40
2018-09-18T04:37:54.108Z,97950.78
2018-09-18T04:40:23.860Z,97957.22
2018-09-18T04:42:53.358Z,97956.86
2018-09-18T04:45:23.067Z,97959.84
2018-09-18T04:47:52.511Z,97958.27
2018-09-18T04:50:22.273Z,97959.48
2018-09-18T04:52:51.915Z,97960.03
2018-09-18T04:55:21.687Z,97962.75
2018-09-18T04:57:52.441Z,97965.17
2018-09-18T05:00:21.974Z,97971.23
2018-09-18T05:02:51.375Z,97961.14
2018-09-18T05:05:21.179Z,97963.19
2018-09-18T05:07:50.485Z,97963.02
2018-09-18T05:10:20.083Z,97965.17
2018-09-18T05:12:50.102Z,97967.02
2018-09-18T05:15:20.608Z,97967.48
2018-09-18T05:17:50.296Z,97969.58
2018-09-18T05:20:20.027Z,97970.50
2018-09-18T05:22:49.682Z,97967.05
2018-09-18T05:25:19.565Z,97962.36
2018-09-18T05:27:49.170Z,97967.98
2018-09-18T05:30:19.074Z,97964.75
2018-09-18T05:32:48.689Z,97966.87
2018-09-18T05:35:18.504Z,97961.19
2018-09-18T05:37:47.936Z,97961.29
2018-09-18T05:40:17.692Z,97961.33
2018-09-18T05:42:47.313Z,97963.02
2018-09-18T05:45:17.163Z,97961.27
2018-09-18T05:47:46.753Z,97965.30
2018-09-18T05:50:16.257Z,97965.27
2018-09-18T05:52:45.943Z,97966.31
2018-09-18T05:55:15.703Z,97963.72
2018-09-18T05:57:45.328Z,97964.25
2018-09-18T06:00:14.902Z,97963.22
2018-09-18T06:02:44.403Z,97962.73
2018-09-18T06:05:14.116Z,97963.92
2018-09-18T06:07:43.876Z,97961.08
2018-09-18T06:10:13.646Z,97956.34
2018-09-18T06:12:43.061Z,97957.05
2018-09-18T06:15:13.160Z,97956.76
2018-09-18T06:17:42.834Z,97960.88
2018-09-18T06:20:12.516Z,97960.55
2018-09-18T06:22:42.095Z,97961.33
2018-09-18T06:25:11.896Z,97965.27
2018-09-18T06:27:41.618Z,97958.45
2018-09-18T06:30:11.481Z,97961.00
2018-09-18T06:32:40.903Z,97964.11
2018-09-18T06:35:10.613Z,97968.41
2018-09-18T06:37:40.254Z,97976.45
2018-09-18T06:40:09.941Z,97974.66
2018-09-18T06:42:40.588Z,97976.09
2018-09-18T06:45:10.608Z,97974.14
2018-09-18T06:47:40.424Z,97972.06
2018-09-18T06:50:10.083Z,97974.66
2018-09-18T06:52:39.888Z,97984.11
2018-09-18T06:55:09.637Z,97976.06
2018-09-18T06:57:39.399Z,97978.42
2018-09-18T07:00:09.425Z,97977.67
2018-09-18T07:02:39.240Z,97976.34
2018-09-18T07:05:09.147Z,97974.02
2018-09-18T07:07:38.770Z,97977.37
2018-09-18T07:10:08.998Z,97981.88
2018-09-18T07:12:38.540Z,97977.16
2018-09-18T07:15:08.259Z,97979.80
2018-09-18T07:17:37.794Z,97977.91
2018-09-18T07:20:07.635Z,97982.42
2018-09-18T07:22:37.216Z,97984.47
2018-09-18T07:25:06.845Z,97986.34
2018-09-18T07:27:36.892Z,97983.46
2018-09-18T07:30:08.052Z,97982.67
2018-09-18T07:32:37.620Z,97987.36
2018-09-18T07:35:08.019Z,97989.56
2018-09-18T07:37:37.633Z,97988.06
2018-09-18T07:40:07.516Z,97988.84
2018-09-18T07:42:37.097Z,97985.16
2018-09-18T07:45:06.863Z,97984.42
2018-09-18T07:47:36.500Z,97990.13
2018-09-18T07:50:06.208Z,97985.69
2018-09-18T07:52:35.711Z,97983.01
2018-09-18T07:55:05.516Z,97983.47
2018-09-18T07:57:35.067Z,97985.22
2018-09-18T08:00:05.642Z,97987.95
2018-09-18T08:02:35.375Z,97988.31
2018-09-18T08:05:06.662Z,97989.42
2018-09-18T08:07:36.181Z,97989.17
2018-09-18T08:10:05.967Z,97987.53
2018-09-18T08:12:35.686Z,97984.09
2018-09-18T08:15:05.312Z,97988.27
2018-09-18T08:17:34.921Z,97985.80
2018-09-18T08:20:04.664Z,97981.45
2018-09-18T08:22:34.439Z,97975.78
2018-09-18T08:25:04.057Z,97974.91
2018-09-18T08:27:33.634Z,97969.00
2018-09-18T08:30:03.322Z,97965.63
2018-09-18T08:32:33.003Z,97964.45
2018-09-18T08:35:02.788Z,97963.00
2018-09-18T08:37:32.676Z,97950.69
2018-09-18T08:40:02.469Z,97953.53
2018-09-18T08:42:32.618Z,97951.55
2018-09-18T08:45:02.331Z,97956.17
2018-09-18T08:47:32.033Z,97954.70
2018-09-18T08:50:01.617Z,97955.20
2018-09-18T08:52:31.354Z,97954.86
2018-09-18T08:55:00.918Z,97956.16
2018-09-18T08:57:30.708Z,97955.25
2018-09-18T09:00:00.507Z,97950.73
2018-09-18T09:02:30.351Z,97952.55
2018-09-18T09:04:59.983Z,97947.84
2018-09-18T09:07:30.469Z,97946.28
2018-09-18T09:10:00.239Z,97940.11
2018-09-18T09:12:30.043Z,97933.28
2018-09-18T09:14:59.777Z,97932.67
2018-09-18T09:17:30.432Z,97928.92
2018-09-18T09:20:00.196Z,97933.59
2018-09-18T09:22:30.043Z,97929.05
2018-09-18T09:24:59.714Z,97927.80
2018-09-18T09:27:29.398Z,97924.56
2018-09-18T09:29:58.822Z,97920.78
2018-09-18T09:32:28.717Z,97920.14
2018-09-18T09:34:58.472Z,97915.84
2018-09-18T09:37:28.225Z,97913.08
2018-09-18T09:39:57.657Z,97912.00
2018-09-18T09:42:27.470Z,97912.08
2018-09-18T09:44:57.154Z,97909.05
2018-09-18T09:47:26.668Z,97904.63
2018-09-18T09:49:56.361Z,97897.58
2018-09-18T09:52:26.095Z,97904.83
2018-09-18T09:54:55.550Z,97897.76
2018-09-18T09:57:25.645Z,97895.33
2018-09-18T09:59:55.085Z,97888.08
2018-09-18T10:02:31.001Z,97889.30
2018-09-18T10:05:00.586Z,97887.63
2018-09-18T10:07:30.346Z,97884.92
2018-09-18T10:09:59.845Z,97888.98
2018-09-18T10:12:29.314Z,97885.27
2018-09-18T10:14:59.088Z,97882.98
2018-09-18T10:17:28.902Z,97880.05
2018-09-18T10:19:58.415Z,97882.59
2018-09-18T10:22:27.828Z,97877.55
2018-09-18T10:24:57.465Z,97870.92
2018-09-18T10:27:27.821Z,97869.09
2018-09-18T10:29:57.316Z,97872.74
2018-09-18T10:32:26.934Z,97866.80
2018-09-18T10:34:56.526Z,97867.66
2018-09-18T10:37:26.264Z,97862.49
2018-09-18T10:39:56.148Z,97864.20
2018-09-18T10:42:25.852Z,97860.72
2018-09-18T10:44:55.550Z,97859.78
2018-09-18T10:47:25.326Z,97855.25
2018-09-18T10:49:54.759Z,97852.52
2018-09-18T10:52:24.402Z,97852.08
2018-09-18T10:54:54.014Z,97849.41
2018-09-18T10:57:23.694Z,97850.16
2018-09-18T10:59:53.488Z,97849.91
2018-09-18T11:02:23.134Z,97843.46
2018-09-18T11:04:52.683Z,97848.62
2018-09-18T11:07:22.457Z,97848.03
2018-09-18T11:09:52.293Z,97837.98
2018-09-18T11:12:22.001Z,97828.41
2018-09-18T11:14:51.496Z,97829.30
2018-09-18T11:17:21.280Z,97829.33
2018-09-18T11:19:50.752Z,97831.24
2018-09-18T11:22:20.983Z,97828.81
2018-09-18T11:24:50.678Z,97818.72
2018-09-18T11:27:20.246Z,97828.53
2018-09-18T11:29:49.985Z,97821.58
2018-09-18T11:32:19.742Z,97824.13
2018-09-18T11:34:49.551Z,97825.45
2018-09-18T11:37:19.232Z,97822.66
2018-09-18T11:39:48.748Z,97819.77
2018-09-18T11:42:19.064Z,97817.89
2018-09-18T11:44:48.844Z,97815.05
2018-09-18T11:47:18.603Z,97812.75
2018-09-18T11:49:48.026Z,97813.97
2018-09-18T11:52:17.838Z,97806.94
2018-09-18T11:54:48.361Z,97806.31
2018-09-18T11:57:17.979Z,97803.64
2018-09-18T11:59:47.534Z,97801.88
2018-09-18T12:02:17.632Z,97798.03
2018-09-18T12:04:47.249Z,97799.28
2018-09-18T12:07:16.983Z,97797.77
2018-09-18T12:09:46.598Z,97796.91
2018-09-18T12:12:16.281Z,97794.58
2018-09-18T12:14:45.787Z,97785.95
2018-09-18T12:17:15.386Z,97781.83
2018-09-18T12:19:45.147Z,97783.16
2018-09-18T12:22:14.931Z,97777.22
2018-09-18T12:24:44.623Z,97781.33
2018-09-18T12:27:14.499Z,97781.84
2018-09-18T12:29:44.186Z,97773.60
2018-09-18T12:32:13.701Z,97774.95
2018-09-18T12:34:43.398Z,97773.85
2018-09-18T12:37:13.490Z,97776.73
2018-09-18T12:39:42.919Z,97773.11
2018-09-18T12:42:12.733Z,97765.92
2018-09-18T12:44:42.477Z,97765.05
2018-09-18T12:47:12.203Z,97769.61
2018-09-18T12:49:41.962Z,97766.97
2018-09-18T12:52:11.555Z,97759.13
2018-09-18T12:54:41.121Z,97760.46
2018-09-18T12:57:10.806Z,97753.13
2018-09-18T12:59:40.449Z,97755.77
2018-09-18T13:02:10.502Z,97760.40
2018-09-18T13:04:40.368Z,97755.78
2018-09-18T13:07:09.952Z,97748.53
2018-09-18T13:09:39.734Z,97751.59
2018-09-18T13:12:09.374Z,97744.99
2018-09-18T13:14:39.217Z,97740.52
2018-09-18T13:17:09.009Z,97742.73
2018-09-18T13:19:38.630Z,97738.89
2018-09-18T13:22:08.861Z,97732.77
2018-09-18T13:24:38.596Z,97727.80
2018-09-18T13:27:08.202Z,97732.38
2018-09-18T13:29:37.787Z,97728.67
2018-09-18T13:32:07.601Z,97726.67
2018-09-18T13:34:37.476Z,97724.60
2018-09-18T13:37:08.204Z,97721.95
2018-09-18T13:39:37.785Z,97727.76
2018-09-18T13:42:07.401Z,97723.68
2018-09-18T13:44:37.037Z,97720.28
2018-09-18T13:47:06.704Z,97719.06
2018-09-18T13:49:36.257Z,97717.60
2018-09-18T13:52:05.959Z,97708.41
2018-09-18T13:54:35.821Z,97704.45
2018-09-18T13:57:05.574Z,97710.56
2018-09-18T13:59:35.235Z,97707.75
2018-09-18T14:02:05.000Z,97706.14
2018-09-18T14:04:34.731Z,97704.20
2018-09-18T14:07:06.141Z,97699.77
2018-09-18T14:09:35.777Z,97700.38
2018-09-18T14:12:06.904Z,97697.45
2018-09-18T14:14:36.747Z,97693.22
2018-09-18T14:17:07.239Z,97691.74
2018-09-18T14:19:36.842Z,97688.88
2018-09-18T14:22:25.146Z,97692.03
2018-09-18T14:25:00.665Z,97690.33
2018-09-18T14:27:30.764Z,97683.08
2018-09-18T14:45:25.817Z,97683.41
2018-09-18T14:47:55.702Z,97682.25
2018-09-18T14:50:25.403Z,97678.45
2018-09-18T14:52:54.902Z,97679.07
2018-09-18T14:55:24.361Z,97677.61
2018-09-18T14:57:54.041Z,97671.50
2018-09-18T15:00:23.544Z,97673.98
2018-09-18T15:02:53.741Z,97670.48
2018-09-18T15:05:24.022Z,97673.38
2018-09-18T15:07:53.641Z,97670.80
2018-09-18T15:10:23.081Z,97670.58
2018-09-18T15:12:54.382Z,97669.16
2018-09-18T15:15:23.957Z,97662.94
2018-09-18T15:17:53.624Z,97669.66
2018-09-18T15:20:23.824Z,97671.53
2018-09-18T15:22:53.942Z,97666.89
2018-09-18T15:25:23.931Z,97666.88
2018-09-18T15:27:58.865Z,97662.11
2018-09-18T15:30:29.481Z,97663.55
2018-09-18T15:32:59.241Z,97666.77
2018-09-18T15:48:19.804Z,97667.09
2018-09-18T15:50:49.747Z,97666.21
2018-09-18T15:53:21.528Z,97667.27
2018-09-18T15:55:52.256Z,97669.83
2018-09-18T16:04:18.036Z,97673.33
2018-09-18T16:06:57.514Z,97673.51
2018-09-18T16:33:35.668Z,97711.80
2018-09-18T16:36:09.868Z,97707.69
2018-09-18T16:38:40.684Z,97715.90
2018-09-18T16:41:15.498Z,97710.03
2018-09-18T16:43:45.537Z,97718.70
2018-09-18T16:46:15.463Z,97724.77
2018-09-18T16:48:45.407Z,97724.97
2018-09-18T16:51:15.341Z,97718.48
2018-09-18T16:53:45.492Z,97726.41
2018-09-18T16:56:19.969Z,97725.09
2018-09-18T16:58:51.163Z,97727.47
2018-09-18T17:01:21.120Z,97728.55
2018-09-18T17:03:52.215Z,97725.02
2018-09-18T17:06:23.563Z,97733.27
2018-09-18T17:08:59.113Z,97741.66
2018-09-18T17:11:33.714Z,97741.02
2018-09-18T17:14:04.981Z,97744.41
2018-09-18T17:16:36.007Z,97741.94
2018-09-18T17:19:07.755Z,97743.92
2018-09-18T17:21:38.694Z,97747.06
2018-09-18T17:24:08.614Z,97748.95
2018-09-18T17:26:40.329Z,97754.80
2018-09-18T17:32:36.036Z,97761.25
2018-09-18T17:38:14.530Z,97758.97
2018-09-18T17:41:03.217Z,97762.56
2018-09-18T17:46:44.002Z,97767.63
2018-09-18T17:49:15.304Z,97763.58
2018-09-18T17:54:37.470Z,97773.64
2018-09-18T17:57:20.157Z,97775.72
2018-09-18T17:59:50.314Z,97778.27
2018-09-18T18:02:21.112Z,97777.33
2018-09-18T18:04:52.029Z,97790.52
2018-09-18T18:07:21.853Z,97789.72
2018-09-18T18:09:52.253Z,97796.24
2018-09-18T18:12:27.781Z,97804.31
2018-09-18T18:14:58.003Z,97803.28
2018-09-18T18:17:30.229Z,97809.06
2018-09-18T18:20:02.061Z,97805.00
2018-09-18T18:22:40.171Z,97806.56
2018-09-18T18:25:15.351Z,97808.30
2018-09-18T18:27:47.614Z,97806.04
2018-09-18T18:30:19.696Z,97807.37
2018-09-18T18:32:51.511Z,97812.58
2018-09-18T18:35:21.597Z,97811.06
2018-09-18T18:37:53.653Z,97812.80
2018-09-18T18:40:26.193Z,97814.86
2018-09-18T18:42:56.333Z,97818.44
2018-09-18T18:45:30.632Z,97817.12
2018-09-18T18:51:32.954Z,97831.05
2018-09-18T18:54:04.675Z,97834.13
2018-09-18T18:56:45.784Z,97828.66
2018-09-18T19:05:27.639Z,97823.76
2018-09-18T19:07:58.283Z,97828.37
2018-09-18T19:10:29.081Z,97829.47
2018-09-18T19:13:06.498Z,97830.53
2018-09-18T19:15:40.073Z,97837.13
2018-09-18T19:18:17.302Z,97833.91
2018-09-18T19:20:50.134Z,97831.64
2018-09-18T19:23:21.086Z,97830.81
2018-09-18T19:29:21.267Z,97832.62
2018-09-18T19:31:51.869Z,97837.87
2018-09-18T19:34:21.933Z,97839.66
2018-09-18T19:36:53.364Z,97843.59
2018-09-18T19:39:28.777Z,97846.47
2018-09-18T19:41:59.433Z,97851.97
2018-09-18T19:44:35.215Z,97849.22
2018-09-18T19:47:06.158Z,97857.95
2018-09-18T19:49:43.928Z,97857.95
2018-09-18T19:52:15.650Z,97855.27
2018-09-18T19:54:46.386Z,97856.70
2018-09-18T19:57:18.091Z,97855.90
2018-09-18T19:59:56.777Z,97852.84
2018-09-18T20:02:27.569Z,97852.48
2018-09-18T20:04:58.458Z,97854.17
2018-09-18T20:07:30.860Z,97859.39
2018-09-18T20:22:17.456Z,97863.34
2018-09-18T21:20:02.912Z,97864.58
2018-09-18T21:31:58.991Z,97861.06
2018-09-18T21:34:32.497Z,97867.36
2018-09-18T21:37:02.673Z,97861.28
2018-09-18T21:39:33.850Z,97854.76
2018-09-18T21:42:13.031Z,97863.80
2018-09-18T21:44:48.363Z,97863.80
2018-09-18T21:47:18.898Z,97859.75
2018-09-18T21:49:50.931Z,97860.34
2018-09-18T21:52:21.986Z,97857.45
2018-09-18T21:54:53.784Z,97854.25
2018-09-18T22:00:43.433Z,97855.57
2018-09-18T22:03:13.515Z,97858.78
2018-09-18T22:05:44.683Z,97860.20
2018-09-18T22:18:40.533Z,97855.66
2018-09-18T22:21:10.900Z,97851.50
2018-09-18T22:23:40.983Z,97858.71
2018-09-18T22:26:11.218Z,97862.75
2018-09-18T22:28:41.152Z,97865.24
2018-09-18T22:31:11.068Z,97860.66
2018-09-18T22:33:41.365Z,97863.15
2018-09-18T22:36:11.534Z,97866.78
2018-09-18T22:38:41.401Z,97869.00
2018-09-18T22:41:11.253Z,97866.82
2018-09-18T22:43:42.575Z,97871.81
2018-09-18T22:46:12.792Z,97874.94
2018-09-18T22:48:43.418Z,97863.38
2018-09-18T22:51:17.953Z,97867.72
2018-09-18T22:53:48.026Z,97861.75
2018-09-18T22:56:17.835Z,97860.02
2018-09-18T22:58:47.844Z,97864.27
2018-09-18T23:01:17.723Z,97861.75
2018-09-18T23:03:47.509Z,97863.23
2018-09-18T23:06:18.447Z,97862.55
2018-09-18T23:08:48.688Z,97865.23
2018-09-18T23:11:19.478Z,97862.48
2018-09-18T23:13:49.634Z,97866.37
2018-09-18T23:16:19.768Z,97867.37
2018-09-18T23:19:10.968Z,97866.58
2018-09-18T23:21:45.166Z,97864.69
